sensor_id;sensor_type;location;lat;lon;timestamp;P1;durP1;ratioP1;P2;durP2;ratioP2
45893;SDS011;31603;51.148;16.932;2022-12-29T00:02:04;5.57;;;2.20;;
45893;SDS011;31603;51.148;16.932;2022-12-29T00:04:38;6.53;;;2.25;;
45893;SDS011;31603;51.148;16.932;2022-12-29T00:07:09;7.28;;;2.38;;
45893;SDS011;31603;51.148;16.932;2022-12-29T00:09:36;3.85;;;2.20;;
45893;SDS011;31603;51.148;16.932;2022-12-29T00:12:04;4.00;;;2.15;;
45893;SDS011;31603;51.148;16.932;2022-12-29T00:14:33;5.78;;;2.33;;
45893;SDS011;31603;51.148;16.932;2022-12-29T00:17:21;7.28;;;2.25;;
45893;SDS011;31603;51.148;16.932;2022-12-29T00:19:54;7.75;;;2.65;;
45893;SDS011;31603;51.148;16.932;2022-12-29T00:25:49;5.07;;;2.20;;
45893;SDS011;31603;51.148;16.932;2022-12-29T00:28:35;6.05;;;2.47;;
45893;SDS011;31603;51.148;16.932;2022-12-29T00:31:19;5.35;;;2.17;;
45893;SDS011;31603;51.148;16.932;2022-12-29T00:34:07;5.65;;;2.33;;
45893;SDS011;31603;51.148;16.932;2022-12-29T00:36:54;4.10;;;2.28;;
45893;SDS011;31603;51.148;16.932;2022-12-29T00:39:21;5.38;;;2.60;;
45893;SDS011;31603;51.148;16.932;2022-12-29T00:42:06;6.35;;;3.03;;
45893;SDS011;31603;51.148;16.932;2022-12-29T00:44:55;6.63;;;2.55;;
45893;SDS011;31603;51.148;16.932;2022-12-29T00:47:21;5.82;;;2.45;;
45893;SDS011;31603;51.148;16.932;2022-12-29T00:49:48;4.05;;;2.20;;
45893;SDS011;31603;51.148;16.932;2022-12-29T00:52:16;5.10;;;2.15;;
45893;SDS011;31603;51.148;16.932;2022-12-29T00:54:51;6.10;;;2.35;;
45893;SDS011;31603;51.148;16.932;2022-12-29T00:57:18;4.72;;;2.35;;
45893;SDS011;31603;51.148;16.932;2022-12-29T00:59:46;4.03;;;2.22;;
45893;SDS011;31603;51.148;16.932;2022-12-29T01:02:26;5.13;;;2.47;;
45893;SDS011;31603;51.148;16.932;2022-12-29T01:05:35;3.83;;;1.95;;
45893;SDS011;31603;51.148;16.932;2022-12-29T01:11:04;4.28;;;2.15;;
45893;SDS011;31603;51.148;16.932;2022-12-29T01:13:33;6.10;;;2.15;;
45893;SDS011;31603;51.148;16.932;2022-12-29T01:16:10;5.57;;;2.50;;
45893;SDS011;31603;51.148;16.932;2022-12-29T01:18:38;4.82;;;1.85;;
45893;SDS011;31603;51.148;16.932;2022-12-29T01:21:06;4.22;;;2.17;;
45893;SDS011;31603;51.148;16.932;2022-12-29T01:23:34;3.63;;;2.00;;
45893;SDS011;31603;51.148;16.932;2022-12-29T01:26:08;6.18;;;2.45;;
45893;SDS011;31603;51.148;16.932;2022-12-29T01:28:35;4.45;;;2.20;;
45893;SDS011;31603;51.148;16.932;2022-12-29T01:31:07;3.72;;;2.00;;
45893;SDS011;31603;51.148;16.932;2022-12-29T01:33:34;4.00;;;2.10;;
45893;SDS011;31603;51.148;16.932;2022-12-29T01:36:04;3.58;;;1.80;;
45893;SDS011;31603;51.148;16.932;2022-12-29T01:38:34;4.28;;;2.13;;
45893;SDS011;31603;51.148;16.932;2022-12-29T01:41:05;3.80;;;1.90;;
45893;SDS011;31603;51.148;16.932;2022-12-29T01:43:39;2.50;;;1.45;;
45893;SDS011;31603;51.148;16.932;2022-12-29T01:46:07;4.07;;;2.05;;
45893;SDS011;31603;51.148;16.932;2022-12-29T01:48:44;2.38;;;1.48;;
45893;SDS011;31603;51.148;16.932;2022-12-29T01:51:14;2.65;;;1.60;;
45893;SDS011;31603;51.148;16.932;2022-12-29T01:53:42;4.10;;;1.50;;
45893;SDS011;31603;51.148;16.932;2022-12-29T01:56:16;3.40;;;1.98;;
45893;SDS011;31603;51.148;16.932;2022-12-29T01:58:46;3.53;;;1.73;;
45893;SDS011;31603;51.148;16.932;2022-12-29T02:01:26;3.35;;;1.63;;
45893;SDS011;31603;51.148;16.932;2022-12-29T02:04:04;3.17;;;1.58;;
45893;SDS011;31603;51.148;16.932;2022-12-29T02:06:36;4.70;;;1.85;;
45893;SDS011;31603;51.148;16.932;2022-12-29T02:09:09;3.22;;;2.03;;
45893;SDS011;31603;51.148;16.932;2022-12-29T02:11:37;3.17;;;1.58;;
45893;SDS011;31603;51.148;16.932;2022-12-29T02:14:07;4.20;;;1.80;;
45893;SDS011;31603;51.148;16.932;2022-12-29T02:16:48;3.25;;;1.70;;
45893;SDS011;31603;51.148;16.932;2022-12-29T02:19:53;2.17;;;1.40;;
45893;SDS011;31603;51.148;16.932;2022-12-29T02:22:55;2.67;;;1.30;;
45893;SDS011;31603;51.148;16.932;2022-12-29T02:25:44;3.53;;;1.67;;
45893;SDS011;31603;51.148;16.932;2022-12-29T02:28:38;2.67;;;1.50;;
45893;SDS011;31603;51.148;16.932;2022-12-29T02:31:33;11.25;;;1.60;;
45893;SDS011;31603;51.148;16.932;2022-12-29T02:34:10;5.05;;;1.70;;
45893;SDS011;31603;51.148;16.932;2022-12-29T02:37:05;6.28;;;1.60;;
45893;SDS011;31603;51.148;16.932;2022-12-29T02:40:00;2.30;;;1.30;;
45893;SDS011;31603;51.148;16.932;2022-12-29T02:43:23;3.38;;;1.60;;
45893;SDS011;31603;51.148;16.932;2022-12-29T02:45:51;3.25;;;1.35;;
45893;SDS011;31603;51.148;16.932;2022-12-29T02:48:45;3.43;;;1.60;;
45893;SDS011;31603;51.148;16.932;2022-12-29T02:51:23;3.03;;;1.50;;
45893;SDS011;31603;51.148;16.932;2022-12-29T02:53:54;2.78;;;1.55;;
45893;SDS011;31603;51.148;16.932;2022-12-29T02:56:39;2.80;;;1.52;;
45893;SDS011;31603;51.148;16.932;2022-12-29T02:59:09;5.32;;;1.50;;
45893;SDS011;31603;51.148;16.932;2022-12-29T03:01:55;4.10;;;1.60;;
45893;SDS011;31603;51.148;16.932;2022-12-29T03:04:50;4.57;;;1.60;;
45893;SDS011;31603;51.148;16.932;2022-12-29T03:07:30;3.10;;;1.42;;
45893;SDS011;31603;51.148;16.932;2022-12-29T03:10:15;2.95;;;1.40;;
45893;SDS011;31603;51.148;16.932;2022-12-29T03:13:10;4.57;;;1.60;;
45893;SDS011;31603;51.148;16.932;2022-12-29T03:16:09;2.03;;;1.20;;
45893;SDS011;31603;51.148;16.932;2022-12-29T03:19:04;2.97;;;1.30;;
45893;SDS011;31603;51.148;16.932;2022-12-29T03:21:41;2.75;;;1.40;;
45893;SDS011;31603;51.148;16.932;2022-12-29T03:24:29;3.15;;;1.45;;
45893;SDS011;31603;51.148;16.932;2022-12-29T03:27:00;2.50;;;1.33;;
45893;SDS011;31603;51.148;16.932;2022-12-29T03:29:34;3.63;;;1.50;;
45893;SDS011;31603;51.148;16.932;2022-12-29T03:32:04;4.93;;;1.40;;
45893;SDS011;31603;51.148;16.932;2022-12-29T03:34:39;2.92;;;1.85;;
45893;SDS011;31603;51.148;16.932;2022-12-29T03:37:09;3.38;;;1.48;;
45893;SDS011;31603;51.148;16.932;2022-12-29T03:39:42;3.55;;;1.60;;
45893;SDS011;31603;51.148;16.932;2022-12-29T03:42:11;3.22;;;1.60;;
45893;SDS011;31603;51.148;16.932;2022-12-29T03:44:47;2.55;;;1.58;;
45893;SDS011;31603;51.148;16.932;2022-12-29T03:47:24;2.17;;;1.80;;
45893;SDS011;31603;51.148;16.932;2022-12-29T03:49:51;2.00;;;1.20;;
45893;SDS011;31603;51.148;16.932;2022-12-29T03:52:23;10.02;;;2.22;;
45893;SDS011;31603;51.148;16.932;2022-12-29T03:54:52;2.80;;;1.30;;
45893;SDS011;31603;51.148;16.932;2022-12-29T03:57:18;2.97;;;1.30;;
45893;SDS011;31603;51.148;16.932;2022-12-29T03:59:46;3.20;;;1.90;;
45893;SDS011;31603;51.148;16.932;2022-12-29T04:02:13;4.45;;;1.75;;
45893;SDS011;31603;51.148;16.932;2022-12-29T04:04:41;1.98;;;1.27;;
45893;SDS011;31603;51.148;16.932;2022-12-29T04:07:07;3.00;;;1.42;;
45893;SDS011;31603;51.148;16.932;2022-12-29T04:09:35;2.70;;;1.75;;
45893;SDS011;31603;51.148;16.932;2022-12-29T04:12:01;5.10;;;2.38;;
45893;SDS011;31603;51.148;16.932;2022-12-29T04:14:28;2.42;;;1.73;;
45893;SDS011;31603;51.148;16.932;2022-12-29T04:18:04;3.40;;;2.20;;
45893;SDS011;31603;51.148;16.932;2022-12-29T04:19:55;4.13;;;2.40;;
45893;SDS011;31603;51.148;16.932;2022-12-29T04:22:37;3.65;;;1.85;;
45893;SDS011;31603;51.148;16.932;2022-12-29T04:25:08;4.03;;;2.08;;
45893;SDS011;31603;51.148;16.932;2022-12-29T04:27:43;4.55;;;2.00;;
45893;SDS011;31603;51.148;16.932;2022-12-29T04:30:10;5.05;;;2.45;;
45893;SDS011;31603;51.148;16.932;2022-12-29T04:32:43;4.25;;;1.83;;
45893;SDS011;31603;51.148;16.932;2022-12-29T04:35:09;7.05;;;2.20;;
45893;SDS011;31603;51.148;16.932;2022-12-29T04:37:36;3.80;;;1.80;;
45893;SDS011;31603;51.148;16.932;2022-12-29T04:40:02;3.60;;;1.77;;
45893;SDS011;31603;51.148;16.932;2022-12-29T04:42:30;3.97;;;1.80;;
45893;SDS011;31603;51.148;16.932;2022-12-29T04:44:58;3.15;;;1.75;;
45893;SDS011;31603;51.148;16.932;2022-12-29T04:47:25;4.68;;;1.55;;
45893;SDS011;31603;51.148;16.932;2022-12-29T04:49:53;3.88;;;1.75;;
45893;SDS011;31603;51.148;16.932;2022-12-29T04:52:20;4.10;;;1.70;;
45893;SDS011;31603;51.148;16.932;2022-12-29T04:54:46;2.83;;;1.60;;
45893;SDS011;31603;51.148;16.932;2022-12-29T04:57:13;1.70;;;1.33;;
45893;SDS011;31603;51.148;16.932;2022-12-29T05:02:39;1.98;;;1.38;;
45893;SDS011;31603;51.148;16.932;2022-12-29T05:05:06;2.83;;;1.48;;
45893;SDS011;31603;51.148;16.932;2022-12-29T05:07:44;2.25;;;1.23;;
45893;SDS011;31603;51.148;16.932;2022-12-29T05:10:10;1.58;;;1.20;;
45893;SDS011;31603;51.148;16.932;2022-12-29T05:12:39;1.45;;;1.10;;
45893;SDS011;31603;51.148;16.932;2022-12-29T05:15:07;5.25;;;1.67;;
45893;SDS011;31603;51.148;16.932;2022-12-29T05:20:04;2.42;;;1.58;;
45893;SDS011;31603;51.148;16.932;2022-12-29T05:22:46;2.85;;;1.55;;
45893;SDS011;31603;51.148;16.932;2022-12-29T05:25:12;2.45;;;1.30;;
45893;SDS011;31603;51.148;16.932;2022-12-29T05:27:42;3.38;;;1.20;;
45893;SDS011;31603;51.148;16.932;2022-12-29T05:30:10;2.35;;;1.45;;
45893;SDS011;31603;51.148;16.932;2022-12-29T05:32:40;2.08;;;1.52;;
45893;SDS011;31603;51.148;16.932;2022-12-29T05:35:12;1.65;;;1.20;;
45893;SDS011;31603;51.148;16.932;2022-12-29T05:37:40;2.55;;;1.45;;
45893;SDS011;31603;51.148;16.932;2022-12-29T05:40:11;2.33;;;1.33;;
45893;SDS011;31603;51.148;16.932;2022-12-29T05:42:43;3.28;;;1.70;;
45893;SDS011;31603;51.148;16.932;2022-12-29T05:47:55;3.05;;;1.60;;
45893;SDS011;31603;51.148;16.932;2022-12-29T05:50:22;3.20;;;1.50;;
45893;SDS011;31603;51.148;16.932;2022-12-29T05:52:48;2.90;;;1.55;;
45893;SDS011;31603;51.148;16.932;2022-12-29T05:55:16;2.15;;;1.33;;
45893;SDS011;31603;51.148;16.932;2022-12-29T05:57:44;2.95;;;1.52;;
45893;SDS011;31603;51.148;16.932;2022-12-29T06:00:11;2.92;;;1.70;;
45893;SDS011;31603;51.148;16.932;2022-12-29T06:02:40;3.05;;;1.70;;
45893;SDS011;31603;51.148;16.932;2022-12-29T06:05:10;3.45;;;2.00;;
45893;SDS011;31603;51.148;16.932;2022-12-29T06:07:38;3.40;;;1.83;;
45893;SDS011;31603;51.148;16.932;2022-12-29T06:10:08;4.45;;;2.05;;
45893;SDS011;31603;51.148;16.932;2022-12-29T06:12:36;4.70;;;2.00;;
45893;SDS011;31603;51.148;16.932;2022-12-29T06:15:11;3.60;;;2.13;;
45893;SDS011;31603;51.148;16.932;2022-12-29T06:17:37;4.00;;;2.00;;
45893;SDS011;31603;51.148;16.932;2022-12-29T06:20:07;2.92;;;1.80;;
45893;SDS011;31603;51.148;16.932;2022-12-29T06:22:35;3.58;;;1.88;;
45893;SDS011;31603;51.148;16.932;2022-12-29T06:25:04;6.07;;;1.83;;
45893;SDS011;31603;51.148;16.932;2022-12-29T06:27:38;4.55;;;1.73;;
45893;SDS011;31603;51.148;16.932;2022-12-29T06:30:08;2.45;;;1.75;;
45893;SDS011;31603;51.148;16.932;2022-12-29T06:32:41;2.85;;;1.80;;
45893;SDS011;31603;51.148;16.932;2022-12-29T06:35:12;3.72;;;1.80;;
45893;SDS011;31603;51.148;16.932;2022-12-29T06:37:38;4.40;;;1.70;;
45893;SDS011;31603;51.148;16.932;2022-12-29T06:40:07;2.90;;;2.00;;
45893;SDS011;31603;51.148;16.932;2022-12-29T06:42:34;3.88;;;2.05;;
45893;SDS011;31603;51.148;16.932;2022-12-29T06:45:09;6.05;;;2.67;;
45893;SDS011;31603;51.148;16.932;2022-12-29T06:47:36;5.78;;;3.03;;
45893;SDS011;31603;51.148;16.932;2022-12-29T06:50:08;6.72;;;2.28;;
45893;SDS011;31603;51.148;16.932;2022-12-29T06:52:36;4.93;;;2.20;;
45893;SDS011;31603;51.148;16.932;2022-12-29T06:55:12;4.55;;;2.25;;
45893;SDS011;31603;51.148;16.932;2022-12-29T06:57:39;3.28;;;2.33;;
45893;SDS011;31603;51.148;16.932;2022-12-29T07:00:06;3.55;;;2.20;;
45893;SDS011;31603;51.148;16.932;2022-12-29T07:02:36;5.18;;;2.58;;
45893;SDS011;31603;51.148;16.932;2022-12-29T07:05:02;4.13;;;2.25;;
45893;SDS011;31603;51.148;16.932;2022-12-29T07:07:39;4.60;;;2.40;;
45893;SDS011;31603;51.148;16.932;2022-12-29T07:10:06;3.75;;;2.00;;
45893;SDS011;31603;51.148;16.932;2022-12-29T07:12:33;4.13;;;1.80;;
45893;SDS011;31603;51.148;16.932;2022-12-29T07:15:00;5.65;;;2.30;;
45893;SDS011;31603;51.148;16.932;2022-12-29T07:17:28;4.13;;;1.90;;
45893;SDS011;31603;51.148;16.932;2022-12-29T07:23:21;3.50;;;1.70;;
45893;SDS011;31603;51.148;16.932;2022-12-29T07:25:49;4.22;;;1.92;;
45893;SDS011;31603;51.148;16.932;2022-12-29T07:31:26;3.30;;;1.65;;
45893;SDS011;31603;51.148;16.932;2022-12-29T07:33:53;3.25;;;1.92;;
45893;SDS011;31603;51.148;16.932;2022-12-29T07:36:20;9.30;;;2.25;;
45893;SDS011;31603;51.148;16.932;2022-12-29T07:38:48;3.15;;;1.67;;
45893;SDS011;31603;51.148;16.932;2022-12-29T07:41:23;3.75;;;1.73;;
45893;SDS011;31603;51.148;16.932;2022-12-29T07:43:55;2.88;;;2.03;;
45893;SDS011;31603;51.148;16.932;2022-12-29T07:46:58;6.03;;;2.10;;
45893;SDS011;31603;51.148;16.932;2022-12-29T07:51:29;5.38;;;1.55;;
45893;SDS011;31603;51.148;16.932;2022-12-29T07:52:38;4.07;;;2.13;;
45893;SDS011;31603;51.148;16.932;2022-12-29T07:55:06;2.70;;;1.70;;
45893;SDS011;31603;51.148;16.932;2022-12-29T07:57:37;3.47;;;1.87;;
45893;SDS011;31603;51.148;16.932;2022-12-29T08:00:04;3.67;;;1.83;;
45893;SDS011;31603;51.148;16.932;2022-12-29T08:02:38;4.57;;;2.28;;
45893;SDS011;31603;51.148;16.932;2022-12-29T08:05:05;5.72;;;2.13;;
45893;SDS011;31603;51.148;16.932;2022-12-29T08:07:36;4.53;;;1.92;;
45893;SDS011;31603;51.148;16.932;2022-12-29T08:10:04;3.75;;;1.90;;
45893;SDS011;31603;51.148;16.932;2022-12-29T08:12:33;4.28;;;2.00;;
45893;SDS011;31603;51.148;16.932;2022-12-29T08:14:59;4.55;;;2.00;;
45893;SDS011;31603;51.148;16.932;2022-12-29T08:17:36;4.22;;;2.20;;
45893;SDS011;31603;51.148;16.932;2022-12-29T08:20:05;4.90;;;2.03;;
45893;SDS011;31603;51.148;16.932;2022-12-29T08:22:46;3.08;;;2.08;;
45893;SDS011;31603;51.148;16.932;2022-12-29T08:25:23;5.32;;;2.30;;
45893;SDS011;31603;51.148;16.932;2022-12-29T08:27:50;3.55;;;2.13;;
45893;SDS011;31603;51.148;16.932;2022-12-29T08:30:35;3.17;;;2.08;;
45893;SDS011;31603;51.148;16.932;2022-12-29T08:33:05;5.35;;;1.92;;
45893;SDS011;31603;51.148;16.932;2022-12-29T08:35:41;3.53;;;1.83;;
45893;SDS011;31603;51.148;16.932;2022-12-29T08:38:07;3.65;;;1.80;;
45893;SDS011;31603;51.148;16.932;2022-12-29T08:40:37;4.43;;;2.08;;
45893;SDS011;31603;51.148;16.932;2022-12-29T08:43:06;3.33;;;2.00;;
45893;SDS011;31603;51.148;16.932;2022-12-29T08:45:34;6.70;;;2.03;;
45893;SDS011;31603;51.148;16.932;2022-12-29T08:48:01;6.03;;;2.65;;
45893;SDS011;31603;51.148;16.932;2022-12-29T08:50:28;3.58;;;2.20;;
45893;SDS011;31603;51.148;16.932;2022-12-29T08:53:16;3.88;;;2.55;;
45893;SDS011;31603;51.148;16.932;2022-12-29T08:55:58;5.30;;;2.22;;
45893;SDS011;31603;51.148;16.932;2022-12-29T08:58:39;4.10;;;2.10;;
45893;SDS011;31603;51.148;16.932;2022-12-29T09:01:12;3.55;;;2.42;;
45893;SDS011;31603;51.148;16.932;2022-12-29T09:03:49;4.47;;;2.03;;
45893;SDS011;31603;51.148;16.932;2022-12-29T09:06:40;4.47;;;2.40;;
45893;SDS011;31603;51.148;16.932;2022-12-29T09:09:09;3.65;;;2.05;;
45893;SDS011;31603;51.148;16.932;2022-12-29T09:14:39;4.03;;;1.98;;
45893;SDS011;31603;51.148;16.932;2022-12-29T09:17:22;3.65;;;2.00;;
45893;SDS011;31603;51.148;16.932;2022-12-29T09:20:08;7.30;;;2.20;;
45893;SDS011;31603;51.148;16.932;2022-12-29T09:22:37;5.97;;;2.10;;
45893;SDS011;31603;51.148;16.932;2022-12-29T09:25:07;5.47;;;2.10;;
45893;SDS011;31603;51.148;16.932;2022-12-29T09:27:39;4.50;;;1.80;;
45893;SDS011;31603;51.148;16.932;2022-12-29T09:30:07;3.45;;;1.75;;
45893;SDS011;31603;51.148;16.932;2022-12-29T09:32:41;4.28;;;2.00;;
45893;SDS011;31603;51.148;16.932;2022-12-29T09:35:08;4.38;;;2.05;;
45893;SDS011;31603;51.148;16.932;2022-12-29T09:37:34;3.63;;;2.10;;
45893;SDS011;31603;51.148;16.932;2022-12-29T09:40:02;4.45;;;2.17;;
45893;SDS011;31603;51.148;16.932;2022-12-29T09:42:41;4.00;;;2.15;;
45893;SDS011;31603;51.148;16.932;2022-12-29T09:45:23;4.38;;;2.20;;
45893;SDS011;31603;51.148;16.932;2022-12-29T09:48:06;2.92;;;2.00;;
45893;SDS011;31603;51.148;16.932;2022-12-29T09:50:46;4.80;;;2.03;;
45893;SDS011;31603;51.148;16.932;2022-12-29T09:53:18;3.53;;;2.00;;
45893;SDS011;31603;51.148;16.932;2022-12-29T09:56:00;3.05;;;1.73;;
45893;SDS011;31603;51.148;16.932;2022-12-29T09:58:39;3.10;;;2.10;;
45893;SDS011;31603;51.148;16.932;2022-12-29T10:01:13;3.70;;;2.13;;
45893;SDS011;31603;51.148;16.932;2022-12-29T10:03:48;5.30;;;2.50;;
45893;SDS011;31603;51.148;16.932;2022-12-29T10:06:19;5.15;;;1.83;;
45893;SDS011;31603;51.148;16.932;2022-12-29T10:09:02;4.75;;;2.08;;
45893;SDS011;31603;51.148;16.932;2022-12-29T10:11:46;3.53;;;2.00;;
45893;SDS011;31603;51.148;16.932;2022-12-29T10:14:56;3.95;;;2.50;;
45893;SDS011;31603;51.148;16.932;2022-12-29T10:17:34;8.05;;;2.75;;
45893;SDS011;31603;51.148;16.932;2022-12-29T10:20:18;2.72;;;1.73;;
45893;SDS011;31603;51.148;16.932;2022-12-29T10:22:59;3.33;;;1.98;;
45893;SDS011;31603;51.148;16.932;2022-12-29T10:25:38;4.93;;;2.30;;
45893;SDS011;31603;51.148;16.932;2022-12-29T10:28:06;5.18;;;2.30;;
45893;SDS011;31603;51.148;16.932;2022-12-29T10:30:43;7.50;;;2.58;;
45893;SDS011;31603;51.148;16.932;2022-12-29T10:33:15;4.13;;;2.35;;
45893;SDS011;31603;51.148;16.932;2022-12-29T10:35:46;3.25;;;2.15;;
45893;SDS011;31603;51.148;16.932;2022-12-29T10:38:17;4.25;;;2.17;;
45893;SDS011;31603;51.148;16.932;2022-12-29T10:40:51;4.30;;;2.42;;
45893;SDS011;31603;51.148;16.932;2022-12-29T10:43:24;4.13;;;2.42;;
45893;SDS011;31603;51.148;16.932;2022-12-29T10:45:54;3.20;;;2.15;;
45893;SDS011;31603;51.148;16.932;2022-12-29T10:48:30;5.72;;;2.55;;
45893;SDS011;31603;51.148;16.932;2022-12-29T10:50:58;3.85;;;2.10;;
45893;SDS011;31603;51.148;16.932;2022-12-29T10:53:38;4.93;;;2.53;;
45893;SDS011;31603;51.148;16.932;2022-12-29T10:56:14;4.95;;;2.50;;
45893;SDS011;31603;51.148;16.932;2022-12-29T10:58:47;7.45;;;2.50;;
45893;SDS011;31603;51.148;16.932;2022-12-29T11:01:38;7.20;;;2.42;;
45893;SDS011;31603;51.148;16.932;2022-12-29T11:04:16;4.75;;;2.22;;
45893;SDS011;31603;51.148;16.932;2022-12-29T11:06:55;5.72;;;2.03;;
45893;SDS011;31603;51.148;16.932;2022-12-29T11:09:24;5.85;;;2.25;;
45893;SDS011;31603;51.148;16.932;2022-12-29T11:11:54;4.03;;;2.15;;
45893;SDS011;31603;51.148;16.932;2022-12-29T11:15:01;4.68;;;2.97;;
45893;SDS011;31603;51.148;16.932;2022-12-29T11:17:43;5.43;;;2.92;;
45893;SDS011;31603;51.148;16.932;2022-12-29T11:20:19;8.43;;;2.78;;
45893;SDS011;31603;51.148;16.932;2022-12-29T11:22:58;5.85;;;2.90;;
45893;SDS011;31603;51.148;16.932;2022-12-29T11:25:29;6.68;;;2.75;;
45893;SDS011;31603;51.148;16.932;2022-12-29T11:27:59;5.15;;;2.65;;
45893;SDS011;31603;51.148;16.932;2022-12-29T11:30:28;9.05;;;3.10;;
45893;SDS011;31603;51.148;16.932;2022-12-29T11:35:58;6.30;;;2.97;;
45893;SDS011;31603;51.148;16.932;2022-12-29T11:38:33;5.82;;;2.50;;
45893;SDS011;31603;51.148;16.932;2022-12-29T11:41:09;3.92;;;2.58;;
45893;SDS011;31603;51.148;16.932;2022-12-29T11:43:50;5.13;;;2.80;;
45893;SDS011;31603;51.148;16.932;2022-12-29T11:46:39;5.00;;;2.53;;
45893;SDS011;31603;51.148;16.932;2022-12-29T11:51:53;6.65;;;3.03;;
45893;SDS011;31603;51.148;16.932;2022-12-29T11:54:29;5.10;;;2.85;;
45893;SDS011;31603;51.148;16.932;2022-12-29T11:57:16;7.22;;;3.25;;
45893;SDS011;31603;51.148;16.932;2022-12-29T11:59:48;5.93;;;3.03;;
45893;SDS011;31603;51.148;16.932;2022-12-29T12:02:29;5.53;;;2.65;;
45893;SDS011;31603;51.148;16.932;2022-12-29T12:05:19;5.22;;;2.70;;
45893;SDS011;31603;51.148;16.932;2022-12-29T12:08:01;6.45;;;2.78;;
45893;SDS011;31603;51.148;16.932;2022-12-29T12:10:36;6.35;;;3.40;;
45893;SDS011;31603;51.148;16.932;2022-12-29T12:13:14;4.00;;;2.90;;
45893;SDS011;31603;51.148;16.932;2022-12-29T12:15:47;5.68;;;2.70;;
45893;SDS011;31603;51.148;16.932;2022-12-29T12:18:40;4.55;;;3.17;;
45893;SDS011;31603;51.148;16.932;2022-12-29T12:21:20;3.83;;;2.50;;
45893;SDS011;31603;51.148;16.932;2022-12-29T12:26:44;7.63;;;3.17;;
45893;SDS011;31603;51.148;16.932;2022-12-29T12:29:22;6.00;;;3.80;;
45893;SDS011;31603;51.148;16.932;2022-12-29T12:31:59;5.85;;;3.10;;
45893;SDS011;31603;51.148;16.932;2022-12-29T12:34:45;8.43;;;2.95;;
45893;SDS011;31603;51.148;16.932;2022-12-29T12:37:39;7.13;;;3.53;;
45893;SDS011;31603;51.148;16.932;2022-12-29T12:40:27;8.07;;;3.72;;
45893;SDS011;31603;51.148;16.932;2022-12-29T12:43:10;8.25;;;3.92;;
45893;SDS011;31603;51.148;16.932;2022-12-29T12:45:52;7.63;;;3.83;;
45893;SDS011;31603;51.148;16.932;2022-12-29T12:48:36;8.98;;;3.70;;
45893;SDS011;31603;51.148;16.932;2022-12-29T12:51:24;7.18;;;3.00;;
45893;SDS011;31603;51.148;16.932;2022-12-29T12:54:08;6.55;;;3.08;;
45893;SDS011;31603;51.148;16.932;2022-12-29T12:56:54;5.60;;;3.10;;
45893;SDS011;31603;51.148;16.932;2022-12-29T12:59:37;7.00;;;3.40;;
45893;SDS011;31603;51.148;16.932;2022-12-29T13:02:15;5.63;;;3.28;;
45893;SDS011;31603;51.148;16.932;2022-12-29T13:05:20;5.60;;;2.63;;
45893;SDS011;31603;51.148;16.932;2022-12-29T13:08:18;3.60;;;2.28;;
45893;SDS011;31603;51.148;16.932;2022-12-29T13:11:01;6.80;;;2.97;;
45893;SDS011;31603;51.148;16.932;2022-12-29T13:13:45;5.75;;;3.00;;
45893;SDS011;31603;51.148;16.932;2022-12-29T13:16:23;5.18;;;3.08;;
45893;SDS011;31603;51.148;16.932;2022-12-29T13:18:56;12.05;;;3.58;;
45893;SDS011;31603;51.148;16.932;2022-12-29T13:21:30;7.00;;;3.97;;
45893;SDS011;31603;51.148;16.932;2022-12-29T13:24:15;6.05;;;3.75;;
45893;SDS011;31603;51.148;16.932;2022-12-29T13:29:43;9.65;;;3.70;;
45893;SDS011;31603;51.148;16.932;2022-12-29T13:32:20;6.10;;;4.07;;
45893;SDS011;31603;51.148;16.932;2022-12-29T13:34:59;6.47;;;3.35;;
45893;SDS011;31603;51.148;16.932;2022-12-29T13:37:44;6.38;;;2.65;;
45893;SDS011;31603;51.148;16.932;2022-12-29T13:40:15;5.57;;;3.50;;
45893;SDS011;31603;51.148;16.932;2022-12-29T13:45:45;5.32;;;2.88;;
45893;SDS011;31603;51.148;16.932;2022-12-29T13:48:17;4.95;;;3.10;;
45893;SDS011;31603;51.148;16.932;2022-12-29T13:50:51;8.20;;;3.13;;
45893;SDS011;31603;51.148;16.932;2022-12-29T13:53:27;7.07;;;3.80;;
45893;SDS011;31603;51.148;16.932;2022-12-29T13:56:04;7.68;;;3.95;;
45893;SDS011;31603;51.148;16.932;2022-12-29T13:58:37;8.30;;;3.90;;
45893;SDS011;31603;51.148;16.932;2022-12-29T14:01:20;6.20;;;3.30;;
45893;SDS011;31603;51.148;16.932;2022-12-29T14:03:56;7.03;;;3.45;;
45893;SDS011;31603;51.148;16.932;2022-12-29T14:06:28;6.35;;;3.85;;
45893;SDS011;31603;51.148;16.932;2022-12-29T14:12:10;8.02;;;4.10;;
45893;SDS011;31603;51.148;16.932;2022-12-29T14:14:55;8.60;;;3.97;;
45893;SDS011;31603;51.148;16.932;2022-12-29T14:17:30;6.57;;;3.83;;
45893;SDS011;31603;51.148;16.932;2022-12-29T14:20:05;9.13;;;4.10;;
45893;SDS011;31603;51.148;16.932;2022-12-29T14:22:56;7.78;;;3.92;;
45893;SDS011;31603;51.148;16.932;2022-12-29T14:28:26;7.88;;;4.00;;
45893;SDS011;31603;51.148;16.932;2022-12-29T14:30:56;8.00;;;4.30;;
45893;SDS011;31603;51.148;16.932;2022-12-29T14:33:33;13.52;;;5.25;;
45893;SDS011;31603;51.148;16.932;2022-12-29T14:36:21;9.57;;;4.50;;
45893;SDS011;31603;51.148;16.932;2022-12-29T14:38:59;7.35;;;3.60;;
45893;SDS011;31603;51.148;16.932;2022-12-29T14:41:58;7.53;;;4.03;;
45893;SDS011;31603;51.148;16.932;2022-12-29T14:44:28;9.05;;;4.30;;
45893;SDS011;31603;51.148;16.932;2022-12-29T14:47:00;9.52;;;4.30;;
45893;SDS011;31603;51.148;16.932;2022-12-29T14:49:40;7.22;;;4.28;;
45893;SDS011;31603;51.148;16.932;2022-12-29T14:52:15;8.73;;;4.72;;
45893;SDS011;31603;51.148;16.932;2022-12-29T14:54:46;8.95;;;5.00;;
45893;SDS011;31603;51.148;16.932;2022-12-29T14:57:24;8.73;;;4.60;;
45893;SDS011;31603;51.148;16.932;2022-12-29T15:00:05;7.93;;;4.88;;
45893;SDS011;31603;51.148;16.932;2022-12-29T15:02:43;12.10;;;5.30;;
45893;SDS011;31603;51.148;16.932;2022-12-29T15:08:05;12.70;;;5.22;;
45893;SDS011;31603;51.148;16.932;2022-12-29T15:13:16;10.77;;;5.53;;
45893;SDS011;31603;51.148;16.932;2022-12-29T15:15:51;10.55;;;5.57;;
45893;SDS011;31603;51.148;16.932;2022-12-29T15:18:22;10.90;;;6.00;;
45893;SDS011;31603;51.148;16.932;2022-12-29T15:20:53;11.80;;;6.82;;
45893;SDS011;31603;51.148;16.932;2022-12-29T15:23:24;12.00;;;6.13;;
45893;SDS011;31603;51.148;16.932;2022-12-29T15:25:54;13.45;;;6.90;;
45893;SDS011;31603;51.148;16.932;2022-12-29T15:28:27;13.73;;;6.18;;
45893;SDS011;31603;51.148;16.932;2022-12-29T15:31:02;14.45;;;6.82;;
45893;SDS011;31603;51.148;16.932;2022-12-29T15:34:00;16.90;;;7.32;;
45893;SDS011;31603;51.148;16.932;2022-12-29T15:36:43;16.83;;;7.82;;
45893;SDS011;31603;51.148;16.932;2022-12-29T15:39:17;13.02;;;6.65;;
45893;SDS011;31603;51.148;16.932;2022-12-29T15:41:46;16.58;;;8.05;;
45893;SDS011;31603;51.148;16.932;2022-12-29T15:44:29;16.58;;;8.63;;
45893;SDS011;31603;51.148;16.932;2022-12-29T15:47:11;20.73;;;9.48;;
45893;SDS011;31603;51.148;16.932;2022-12-29T15:49:41;18.90;;;9.50;;
45893;SDS011;31603;51.148;16.932;2022-12-29T15:52:10;19.20;;;9.13;;
45893;SDS011;31603;51.148;16.932;2022-12-29T15:54:41;15.75;;;8.15;;
45893;SDS011;31603;51.148;16.932;2022-12-29T15:57:10;15.13;;;8.30;;
45893;SDS011;31603;51.148;16.932;2022-12-29T15:59:48;14.90;;;7.38;;
45893;SDS011;31603;51.148;16.932;2022-12-29T16:02:17;15.35;;;7.63;;
45893;SDS011;31603;51.148;16.932;2022-12-29T16:04:44;14.35;;;7.55;;
45893;SDS011;31603;51.148;16.932;2022-12-29T16:07:24;12.15;;;7.13;;
45893;SDS011;31603;51.148;16.932;2022-12-29T16:09:55;12.68;;;6.57;;
45893;SDS011;31603;51.148;16.932;2022-12-29T16:12:24;13.43;;;7.95;;